Tiempo atmosférico en la estación meteorológica de El Maíllo, Salamanca (1027 m.)



Fecha
DESCASC
Temp. máxima en grados centígrados (hora)
DESCASC
Temp. mínima en grados centígrados (hora)
DESCASC
Temp. media en grados centígrados
DESCASC
Racha de viento máxima en m/sg (hora)
DESCASC
Velocidad máxima media en intervalos de 10 minutos(hora)
DESCASC
Precipitaciones diarias en mm
DESCASC
Precipitaciones de 00:00 a 06:00 en mm
DESCASC
Precipitaciones de 06:00 a 12:00 en mm
DESCASC
Precipitaciones de 12:00 a 18:00 en mm
DESCASC
Precipitaciones de 18:00 a 24:00 en mm
DESCASC
29-10-2020 16.6 (16:00) 4.2 (05:30) 10.4 5 (23:59) 3.89 (02:40) 0 0 0 0 0
28-10-2020 15 (14:30) 6.8 (23:59) 10.9 9.17 (09:00) 5.83 (11:10) 0 0 0 0 0
27-10-2020 12.7 (14:20) 4.2 (00:00) 8.4 8.33 (10:50) 4.72 (10:50) 0.2 0 0 0 0.2
26-10-2020 9.5 (16:10) 2.9 (00:00) 6.2 10 (03:50) 6.39 (00:30) 0 0 0 0 0
25-10-2020 11.5 (13:10) 4.6 (00:00) 8 20.28 (09:50) 13.33 (09:30) 10.8 0 2.6 7.8 0.4
24-10-2020 13.1 (14:10) 2.8 (00:00) 8 14.72 (23:50) 8.33 (23:50) 0 0 0 0 0
23-10-2020 12.8 (17:40) 5.3 (00:00) 9.1 7.78 (06:30) 4.72 (06:20) 1.8 0.2 1.6 0 0
22-10-2020 13 (16:20) 7.5 (00:00) 10.3 10.83 (02:20) 6.39 (02:20) 10.6 3.6 2.6 1 3.4
21-10-2020 12.7 (14:10) 9.3 (00:00) 11 20.28 (01:00) 11.67 (01:00) 28.6 1.4 3.8 8.6 14.8
20-10-2020 14.6 (15:20) 10.5 (00:00) 12.6 30.83 (17:20) 14.72 (18:00) 91 6 7 42.8 35.2
19-10-2020 18.8 (14:10) 13.3 (00:00) 16 26.39 (20:40) 17.5 (21:50) 0 0 0 0 0
18-10-2020 19.4 (15:20) 6 (00:00) 12.7 7.78 (23:20) 4.72 (22:10) 0 0 0 0 0
17-10-2020 17.6 (17:10) 5 (00:00) 11.3 7.78 (12:10) 5 (20:50) 0 0 0 0 0
16-10-2020 15.2 (16:10) 2.5 (00:00) 8.8 6.39 (02:10) 4.44 (02:00) 0 0 0 0 0
15-10-2020 13.9 (16:40) 0.8 (00:00) 7.3 11.39 (16:00) 4.17 (12:40) 0 0 0 0 0
14-10-2020 13.8 (16:50) 2.4 (00:00) 8.1 8.33 (16:20) 5 (17:50) 0 0 0 0 0
13-10-2020 18.8 (17:00) 7.1 (00:00) 12.9 11.11 (18:00) 7.5 (18:20) 0 0 0 0 0
12-10-2020 15.6 (16:30) 5.7 (00:00) 10.7 11.39 (07:30) 7.78 (07:30) 0 0 0 0 0
11-10-2020 14.9 (16:40) 6.6 (00:00) 10.7 14.72 (09:40) 10 (09:20) 0 0 0 0 0
10-10-2020 19.9 (16:10) 7.8 (00:00) 13.8 11.11 (22:20) 6.94 (22:20) 0 0 0 0 0
09-10-2020 23.2 (17:00) 9.2 (00:00) 16.2 7.22 (14:10) 5 (22:20) 0 0 0 0 0
08-10-2020 23.9 (16:10) 9.7 (00:00) 16.8 9.17 (16:00) 5.83 (14:20) 0 0 0 0 0
07-10-2020 23.9 (17:10) 8.6 (00:00) 16.3 8.06 (11:50) 5.28 (12:50) 0 0 0 0 0
06-10-2020 20.4 (18:00) 10.1 (00:00) 15.3 7.22 (13:40) 4.72 (13:40) 0 0 0 0 0
05-10-2020 16 (16:10) 5.9 (00:00) 11 8.89 (16:40) 5.56 (16:40) 0 0 0 0 0
04-10-2020 13.6 (14:50) 6.3 (00:00) 10 13.06 (17:00) 8.06 (18:30) 0.2 0 0.2 0 0
03-10-2020 11.2 (13:50) 4.1 (00:00) 7.6 11.11 (15:50) 7.5 (16:00) 0 0 0 0 0
02-10-2020 12.8 (04:40) 5.1 (00:00) 9 20.56 (04:40) 12.78 (10:00) 12.8 0.6 11.4 0.8 0
01-10-2020 17.1 (17:40) 7.1 (05:50) 12.1 11.11 (18:20) 7.22 (19:20) 0 0 0 0 0

Gráficas

Temp. máximas Temp. mínimas Temp. medias Precipitaciones Rachas de viento máximas Velocidades máximas media en intervalos de 10 minutos

Datos horarios

Fecha y hora oficial Temperatura (ºC) Velocidad del viento (km/h) Dirección del viento Racha (km/h) Dirección de racha Precipitación (mm) Presión (hPa) Tendencia (hPa) Humedad (%)
2020-10-30 23:00:00 11.1 13 Sudeste 18 Sudeste 0 -- -- 74
2020-10-30 22:00:00 9.8 10 Sudeste 16 Sudeste 0 -- -- 77
2020-10-30 21:00:00 9.7 8 Sur 15 Sur 0 -- -- 79
2020-10-30 20:00:00 10.5 9 Sudeste 17 Sur 0 -- -- 78
2020-10-30 19:00:00 11.9 9 Sur 12 Sudeste 0 -- -- 77
2020-10-30 18:00:00 16.9 5 Sur 15 Sudoeste 0 -- -- 62
2020-10-30 17:00:00 18.8 9 Sudoeste 18 Sudoeste 0 -- -- 56
2020-10-30 16:00:00 19.5 10 Sudoeste 20 Sudoeste 0 -- -- 51
2020-10-30 15:00:00 19.3 11 Sudoeste 20 Sur 0 -- -- 53
2020-10-30 14:00:00 19 12 Sudoeste 22 Sudoeste 0 -- -- 54
2020-10-30 13:00:00 18.8 12 Sur 22 Oeste 0 -- -- 55
2020-10-30 12:00:00 18.4 11 Sur 20 Sudoeste 0 -- -- 54
2020-10-30 11:00:00 17.5 10 Sur 17 Sudoeste 0 -- -- 56
2020-10-30 10:00:00 15.4 0 Calma 13 Este 0 -- -- 72
2020-10-30 09:00:00 11 4 Sudeste 21 Este 0 -- -- 85
2020-10-30 08:00:00 10.5 7 Sudeste 21 Noroeste 0 -- -- 82
2020-10-30 07:00:00 8.1 3 Sudeste 9 Sur 0 -- -- 92
2020-10-30 06:00:00 9.1 2 Sudeste 10 Sudeste 0 -- -- 94
2020-10-30 05:00:00 8.5 5 Sudeste 15 Sur 0 -- -- 88
2020-10-30 04:00:00 8.6 4 Sudeste 9 Sur 0 -- -- 84
2020-10-30 03:00:00 10.1 4 Este 9 Sudeste 0 -- -- 78
2020-10-30 02:00:00 10.6 3 Este 13 Norte 0 -- -- 74
2020-10-30 01:00:00 12 9 Norte 24 Noroeste 0 -- -- 70
2020-10-30 00:00:00 11.3 10 Sudeste 18 Sudeste 0 -- -- 70
2020-10-29 23:00:00 8.4 4 Este 15 Sur 0 -- -- 86
2020-10-29 22:00:00 7.6 2 Nordeste 13 Sur 0 -- -- 83
2020-10-29 21:00:00 8.4 10 Sur 15 Sur 0 -- -- 85
2020-10-29 20:00:00 9.5 5 Sudeste 15 Sudeste 0 -- -- 76
2020-10-29 19:00:00 10.3 13 Sur 17 Sur 0 -- -- 80
2020-10-29 18:00:00 14.2 5 Sudeste 14 Este 0 -- -- 74
2020-10-29 17:00:00 15.9 8 Este 17 Este 0 -- -- 69
2020-10-29 16:00:00 16.6 3 Norte 11 Nordeste 0 -- -- 65
2020-10-29 15:00:00 15.9 5 Norte 10 Norte 0 -- -- 67
2020-10-29 14:00:00 15 5 Noroeste 15 Sudoeste 0 -- -- 68
2020-10-29 13:00:00 13.7 3 Noroeste 10 Noroeste 0 -- -- 73
2020-10-29 12:00:00 12.3 5 Noroeste 9 Noroeste 0 -- -- 81
2020-10-29 11:00:00 10.6 4 Noroeste 8 Noroeste 0 -- -- 86
2020-10-29 10:00:00 9.6 2 Oeste 12 Sur 0 -- -- 92
2020-10-29 09:00:00 6.2 10 Sur 15 Sur 0 -- -- 96
2020-10-29 08:00:00 4.7 12 Sur 15 Sur 0 -- -- 98
2020-10-29 07:00:00 4.6 12 Sur 17 Sur 0 -- -- 97
2020-10-29 06:00:00 4.3 12 Sudeste 17 Sudeste 0 -- -- 98
2020-10-29 05:00:00 4.5 4 Sudeste 9 Sudeste 0 -- -- 97
2020-10-29 04:00:00 4.9 6 Sudeste 15 Sudeste 0 -- -- 97
2020-10-29 03:00:00 5 11 Sur 15 Sur 0 -- -- 97
2020-10-29 02:00:00 5.2 12 Sur 14 Sur 0 -- -- 96
2020-10-29 01:00:00 6 10 Sur 14 Sur 0 -- -- 96
2020-10-29 00:00:00 6.8 10 Sur 12 Sur 0 -- -- 94
2020-10-28 23:00:00 9.9 0 Calma 4 Sudeste 0 -- -- 93
2020-10-28 22:00:00 10.6 0 Calma 5 Norte 0 -- -- 93
2020-10-28 21:00:00 10.6 0 Calma 6 Noroeste 0 -- -- 93
2020-10-28 20:00:00 11.1 3 Noroeste 5 Noroeste 0 -- -- 91
2020-10-28 19:00:00 11.6 2 Oeste 15 Noroeste 0 -- -- 89
2020-10-28 18:00:00 12.7 8 Oeste 13 Sudoeste 0 -- -- 83
2020-10-28 17:00:00 13.8 13 Sudoeste 19 Oeste 0 -- -- 72
2020-10-28 16:00:00 14.1 12 Sudoeste 26 Sur 0 -- -- 74
2020-10-28 15:00:00 14.5 15 Sudoeste 31 Sudoeste 0 -- -- 72
2020-10-28 14:00:00 13.7 17 Sudoeste 25 Sudoeste 0 -- -- 78
2020-10-28 13:00:00 13.2 16 Sudoeste 29 Sudoeste 0 -- -- 85
2020-10-28 12:00:00 13.4 20 Sudoeste 32 Sudoeste 0 -- -- 84
2020-10-28 11:00:00 12.4 16 Sudoeste 28 Sudoeste 0 -- -- 90
2020-10-28 10:00:00 12 16 Sudoeste 32 Sudoeste 0 -- -- 93
2020-10-28 09:00:00 11.6 20 Sudoeste 33 Oeste 0 -- -- 94
2020-10-28 08:00:00 11.3 16 Sudoeste 24 Sudoeste 0 -- -- 95
2020-10-28 07:00:00 12 15 Sudoeste 28 Sudoeste 0 -- -- 92
2020-10-28 06:00:00 12 17 Sudoeste 27 Sudoeste 0 -- -- 91
2020-10-28 05:00:00 11.5 15 Sudoeste 31 Sudoeste 0 -- -- 94
2020-10-28 04:00:00 12.1 15 Sudoeste 27 Sudoeste 0 -- -- 89
2020-10-28 03:00:00 12.4 16 Sudoeste 33 Sudoeste 0 -- -- 87
2020-10-28 02:00:00 10.9 2 Este 19 Sudoeste 0 -- -- 89
2020-10-28 01:00:00 11.3 8 Sudoeste 25 Sudoeste 0 -- -- 89
2020-10-28 00:00:00 11.1 15 Sudoeste 26 Sudoeste 0 -- -- 89
2020-10-27 23:00:00 8.9 3 Este 15 Nordeste 0 -- -- 94
2020-10-27 22:00:00 8.8 10 Nordeste 13 Nordeste 0 -- -- 93
2020-10-27 21:00:00 9 7 Nordeste 20 Sudoeste 0 -- -- 90
2020-10-27 20:00:00 9.7 11 Sudoeste 21 Sudoeste 0 -- -- 87
2020-10-27 19:00:00 9.4 10 Sudoeste 19 Sur 0.2 -- -- 88
2020-10-27 18:00:00 9.8 10 Sudoeste 24 Sudoeste 0 -- -- 84
2020-10-27 17:00:00 10.4 14 Sudoeste 25 Sudoeste 0 -- -- 80
2020-10-27 16:00:00 11.4 17 Sudoeste 25 Oeste 0 -- -- 72
2020-10-27 15:00:00 12 12 Sudoeste 26 Oeste 0 -- -- 69
2020-10-27 14:00:00 11.9 13 Oeste 27 Oeste 0 -- -- 66
2020-10-27 13:00:00 11.5 15 Sudoeste 27 Sudoeste 0 -- -- 68
2020-10-27 12:00:00 10.2 16 Sudoeste 26 Sudoeste 0 -- -- 73
2020-10-27 11:00:00 9.2 14 Sudoeste 30 Sudoeste 0 -- -- 79
2020-10-27 10:00:00 7.6 13 Sudoeste 24 Sudoeste 0 -- -- 85
2020-10-27 09:00:00 7 15 Sudoeste 27 Sudoeste 0 -- -- 84
2020-10-27 08:00:00 5.9 12 Sudoeste 19 Sudoeste 0 -- -- 90
2020-10-27 07:00:00 5.4 12 Sudoeste 17 Sudoeste 0 -- -- 91
2020-10-27 06:00:00 4.9 10 Sudoeste 19 Sudoeste 0 -- -- 89
2020-10-27 05:00:00 4.5 9 Sudoeste 17 Sudoeste 0 -- -- 89
2020-10-27 04:00:00 4.6 9 Sudoeste 17 Sudoeste 0 -- -- 91
2020-10-27 03:00:00 4.7 8 Sudoeste 15 Sudoeste 0 -- -- 93
2020-10-27 02:00:00 4.5 8 Sudoeste 16 Sudoeste 0 -- -- 95
2020-10-27 01:00:00 4.2 8 Sudoeste 16 Sudoeste 0 -- -- 92
2020-10-27 00:00:00 4.3 9 Sudoeste 14 Sudoeste 0 -- -- 93
2020-10-26 23:00:00 5.3 7 Sudoeste 14 Sudoeste 0 -- -- 88
2020-10-26 22:00:00 5.4 6 Sudoeste 10 Sur 0 -- -- 88
2020-10-26 21:00:00 6.1 4 Oeste 10 Sudoeste 0 -- -- 83
2020-10-26 20:00:00 6.5 8 Sudoeste 11 Sudoeste 0 -- -- 82
2020-10-26 19:00:00 6.8 7 Oeste 17 Oeste 0 -- -- 80
2020-10-26 18:00:00 7.6 11 Oeste 18 Oeste 0 -- -- 73
2020-10-26 17:00:00 8.3 12 Oeste 25 Oeste 0 -- -- 66
2020-10-26 16:00:00 8.9 14 Oeste 25 Oeste 0 -- -- 68
2020-10-26 15:00:00 8.2 17 Oeste 26 Oeste 0 -- -- 70
2020-10-26 14:00:00 7.5 14 Oeste 26 Noroeste 0 -- -- 75
2020-10-26 13:00:00 6.8 10 Noroeste 28 Oeste 0 -- -- 79
2020-10-26 12:00:00 6 12 Noroeste 25 Oeste 0 -- -- 84
2020-10-26 11:00:00 5.4 10 Noroeste 22 Oeste 0 -- -- 88
2020-10-26 10:00:00 4.1 12 Oeste 19 Oeste 0 -- -- 97
2020-10-26 09:00:00 3.2 10 Oeste 21 Oeste 0 -- -- 98
2020-10-26 08:00:00 3.2 13 Oeste 24 Oeste 0 -- -- 97
2020-10-26 07:00:00 3.4 13 Oeste 24 Sudoeste 0 -- -- 97
2020-10-26 06:00:00 3.5 12 Oeste 23 Oeste 0 -- -- 97
2020-10-26 05:00:00 3.7 14 Oeste 30 Oeste 0 -- -- 97
2020-10-26 04:00:00 4 18 Oeste 36 Oeste 0 -- -- 97
2020-10-26 03:00:00 3.9 17 Oeste 27 Oeste 0 -- -- 97
2020-10-26 02:00:00 4.1 14 Sudoeste 24 Sudoeste 0 -- -- 97
2020-10-26 01:00:00 4.5 15 Oeste 32 Oeste 0 -- -- 96
2020-10-26 00:00:00 4.6 14 Sudoeste 25 Sudoeste 0 -- -- 95
2020-10-25 23:00:00 5 13 Sudoeste 24 Sudoeste 0 -- -- 95
2020-10-25 22:00:00 5.1 10 Sudoeste 30 Oeste 0 -- -- 95
2020-10-25 21:00:00 5.7 18 Oeste 29 Oeste 0 -- -- 95
2020-10-25 20:00:00 6.4 12 Oeste 36 Oeste 0.4 -- -- 96
2020-10-25 19:00:00 7.3 22 Oeste 39 Oeste 0 -- -- 93
2020-10-25 18:00:00 7.7 21 Sudoeste 38 Sudoeste 0 -- -- 96
2020-10-25 17:00:00 7.8 27 Oeste 47 Oeste 0.4 -- -- 92
2020-10-25 16:00:00 11.1 21 Sudoeste 42 Oeste 0 -- -- 95
2020-10-25 15:00:00 10.8 22 Sudoeste 43 Sudoeste 3 -- -- 97
2020-10-25 14:00:00 10.9 22 Oeste 45 Sur 4.2 -- -- 94
2020-10-25 13:00:00 11.4 24 Sur 45 Sur 0.2 -- -- 92
2020-10-25 12:00:00 11 26 Sudoeste 55 Sur 1.2 -- -- 93
2020-10-25 11:00:00 10.5 30 Sudoeste 53 Sur 1.2 -- -- 92
2020-10-25 10:00:00 10.6 41 Sur 73 Sur 0.2 -- -- 89
2020-10-25 09:00:00 10.8 34 Sur 63 Sudoeste 0 -- -- 86
2020-10-25 08:00:00 10.4 41 Sur 67 Sur 0 -- -- 85
2020-10-25 07:00:00 9.9 33 Sudoeste 68 Sudoeste 0 -- -- 82
2020-10-25 06:00:00 9.5 37 Sudoeste 62 Sudoeste 0 -- -- 83
2020-10-25 05:00:00 10.1 33 Sudoeste 61 Sudoeste 0 -- -- 85
2020-10-25 04:00:00 10.3 31 Sudoeste 51 Sur 0 -- -- 85
2020-10-25 03:00:00 10 30 Sudoeste 50 Sudoeste 0 -- -- 88
2020-10-25 02:00:00 10.2 24 Sudoeste 56 Sudoeste 0 -- -- 84
2020-10-25 01:00:00 9.9 24 Sudoeste 43 Sur 0 -- -- 85
2020-10-25 00:00:00 10 28 Sur 53 Sur 0 -- -- 82
2020-10-24 23:00:00 10.2 22 Sudoeste 45 Sudoeste 0 -- -- 82
2020-10-24 22:00:00 10.1 20 Sudoeste 42 Sur 0 -- -- 83
2020-10-24 21:00:00 9.8 23 Sudoeste 44 Sur 0 -- -- 86
2020-10-24 20:00:00 9.8 22 Sudoeste 45 Sudoeste 0 -- -- 85
2020-10-24 19:00:00 9.7 20 Sur 35 Sudoeste 0 -- -- 84
2020-10-24 18:00:00 9.9 21 Sudoeste 34 Sudoeste 0 -- -- 82
2020-10-24 17:00:00 10.4 17 Sudoeste 32 Sudoeste 0 -- -- 82
2020-10-24 16:00:00 12.5 17 Sudoeste 32 Sudoeste 0 -- -- 74
2020-10-24 15:00:00 12.5 19 Sudoeste 31 Sudoeste 0 -- -- 71
2020-10-24 14:00:00 12.8 12 Sudoeste 25 Oeste 0 -- -- 69
2020-10-24 13:00:00 11.9 15 Oeste 26 Oeste 0 -- -- 69
2020-10-24 12:00:00 10.6 3 Oeste 7 Oeste 0 -- -- 79
2020-10-24 11:00:00 8.7 0 Calma 6 Sur 0 -- -- 87
2020-10-24 10:00:00 5.4 6 Sudeste 10 Sudeste 0 -- -- 97
2020-10-24 09:00:00 3.4 8 Sur 17 Sur 0 -- -- 97
2020-10-24 08:00:00 3.3 8 Sur 14 Sur 0 -- -- 97
2020-10-24 07:00:00 3.2 6 Sudeste 14 Sur 0 -- -- 97
2020-10-24 06:00:00 3.4 8 Sudeste 12 Sur 0 -- -- 97
2020-10-24 05:00:00 3.7 6 Sur 12 Sur 0 -- -- 96
2020-10-24 04:00:00 4.1 8 Sur 10 Sur 0 -- -- 95
2020-10-24 03:00:00 5.6 7 Sur 9 Sur 0 -- -- 92
2020-10-24 02:00:00 7.4 6 Sudoeste 10 Sudoeste 0 -- -- 92
2020-10-24 01:00:00 7.4 6 Sur 11 Sur 0 -- -- 93
2020-10-24 00:00:00 7 8 Sur 12 Sudoeste 0 -- -- 91
2020-10-23 23:00:00 8.3 6 Sudoeste 14 Sudoeste 0 -- -- 88
2020-10-23 22:00:00 8.4 8 Sudoeste 14 Sudoeste 0 -- -- 88
2020-10-23 21:00:00 8.3 7 Sudoeste 12 Sudoeste 0 -- -- 88
2020-10-23 20:00:00 8.8 7 Sudoeste 11 Sudoeste 0 -- -- 84
2020-10-23 19:00:00 10.3 6 Sudoeste 21 Sudoeste 0 -- -- 78
2020-10-23 18:00:00 12.6 14 Sudoeste 22 Sudoeste 0 -- -- 66
2020-10-23 17:00:00 12 13 Sudoeste 25 Sudoeste 0 -- -- 68
2020-10-23 16:00:00 10.7 13 Oeste 22 Oeste 0 -- -- 75
2020-10-23 15:00:00 10.1 15 Oeste 23 Oeste 0 -- -- 79
2020-10-23 14:00:00 9.6 11 Sudoeste 19 Sudoeste 0 -- -- 87
2020-10-23 13:00:00 10.9 10 Oeste 21 Oeste 0 -- -- 79
2020-10-23 12:00:00 9.8 14 Sudoeste 23 Oeste 0 -- -- 83
2020-10-23 11:00:00 9.5 12 Sudoeste 19 Sudoeste 0 -- -- 91
2020-10-23 10:00:00 7.5 9 Sudoeste 17 Sudoeste 0 -- -- 96
2020-10-23 09:00:00 6.6 12 Sudoeste 18 Sudoeste 0.2 -- -- 96
2020-10-23 08:00:00 5.6 10 Sur 14 Sur 0 -- -- 96
2020-10-23 07:00:00 6.4 5 Sudoeste 28 Sudoeste 1.4 -- -- 96
2020-10-23 06:00:00 7.2 12 Sudoeste 23 Sudoeste 0.2 -- -- 95
2020-10-23 05:00:00 6.3 0 Calma 12 Sudeste 0 -- -- 97
2020-10-23 04:00:00 5.8 8 Sur 10 Sur 0 -- -- 96
2020-10-23 03:00:00 6.7 3 Sur 13 Sur 0 -- -- 95
2020-10-23 02:00:00 7.2 8 Sudoeste 13 Sudoeste 0 -- -- 96
2020-10-23 01:00:00 7.3 8 Sudoeste 12 Sudoeste 0 -- -- 94
2020-10-23 00:00:00 7.5 6 Sudoeste 11 Sudoeste 0 -- -- 95
2020-10-22 23:00:00 8 7 Sur 29 Sudoeste 3.4 -- -- 95
2020-10-22 22:00:00 8.6 6 Oeste 15 Noroeste 0 -- -- 92
2020-10-22 21:00:00 7.7 7 Sur 12 Sudoeste 0 -- -- 91
2020-10-22 20:00:00 9.1 7 Sudoeste 13 Sudoeste 0 -- -- 89
2020-10-22 19:00:00 10.1 9 Sudoeste 20 Sudoeste 0 -- -- 82
2020-10-22 18:00:00 11.7 13 Sur 22 Sur 0 -- -- 80
2020-10-22 17:00:00 12.3 8 Sudoeste 24 Sur 0.2 -- -- 82
2020-10-22 16:00:00 12.5 13 Sudoeste 26 Sur 0.6 -- -- 83
2020-10-22 15:00:00 11.8 12 Sur 20 Sudoeste 0.2 -- -- 83
2020-10-22 14:00:00 11.4 14 Sudoeste 24 Sur 0 -- -- 86
2020-10-22 13:00:00 12.3 11 Sudoeste 28 Sudoeste 0 -- -- 84
2020-10-22 12:00:00 11.9 13 Sudoeste 24 Sudoeste 0.2 -- -- 88
2020-10-22 11:00:00 9.6 4 Noroeste 11 Oeste 0.2 -- -- 96
2020-10-22 10:00:00 9.6 3 Noroeste 13 Sudoeste 0.2 -- -- 94
2020-10-22 09:00:00 9.3 14 Sudoeste 26 Sudoeste 0.2 -- -- 95
2020-10-22 08:00:00 9 0 Calma 12 Sudoeste 0.6 -- -- 97
2020-10-22 07:00:00 9.1 4 Oeste 17 Oeste 1.2 -- -- 97
2020-10-22 06:00:00 9.5 2 Noroeste 8 Noroeste 2 -- -- 96
2020-10-22 05:00:00 9.7 4 Norte 24 Sur 0 -- -- 92
2020-10-22 04:00:00 10 17 Sur 37 Sur 0 -- -- 89
2020-10-22 03:00:00 10.2 18 Sur 39 Sur 0.2 -- -- 90
2020-10-22 02:00:00 10.4 19 Sur 33 Sur 0 -- -- 89
2020-10-22 01:00:00 9.8 13 Sur 22 Sur 1.4 -- -- 95
2020-10-22 00:00:00 9.9 4 Sur 18 Sudoeste 3.6 -- -- 95
2020-10-21 23:00:00 10.1 14 Sudoeste 27 Sudoeste 0.8 -- -- 92
2020-10-21 22:00:00 10.2 12 Sudoeste 27 Sur 2.4 -- -- 94
2020-10-21 21:00:00 9.3 7 Sudoeste 24 Sudoeste 6.4 -- -- 95
2020-10-21 20:00:00 10.5 18 Sudoeste 58 Sur 0.6 -- -- 89
2020-10-21 19:00:00 10.7 30 Sur 49 Sur 1 -- -- 88
2020-10-21 18:00:00 10.6 27 Sur 47 Sur 2.2 -- -- 89
2020-10-21 17:00:00 10.8 23 Sudoeste 39 Sudoeste 4.4 -- -- 87
2020-10-21 16:00:00 11.3 16 Sur 40 Sudoeste 0.4 -- -- 87
2020-10-21 15:00:00 11.4 19 Sudoeste 50 Sur 0 -- -- 84
2020-10-21 14:00:00 12.4 24 Sur 50 Sudoeste 0 -- -- 79
2020-10-21 13:00:00 11.4 19 Sudoeste 36 Sudoeste 1.6 -- -- 89
2020-10-21 12:00:00 10.6 15 Sudoeste 39 Sudoeste 3.2 -- -- 94
2020-10-21 11:00:00 11.2 20 Sur 48 Sur 0.4 -- -- 89
2020-10-21 10:00:00 10.2 27 Sur 51 Sur 0 -- -- 89
2020-10-21 09:00:00 10 22 Sudoeste 44 Sudoeste 0 -- -- 91
2020-10-21 08:00:00 9.9 21 Sur 47 Sur 0.2 -- -- 92
2020-10-21 07:00:00 10.1 27 Sur 62 Sur 0 -- -- 89
2020-10-21 06:00:00 10.2 30 Sur 60 Sur 0.2 -- -- 90
2020-10-21 05:00:00 9.9 33 Sur 61 Sudoeste 0 -- -- 91
2020-10-21 04:00:00 10 35 Sur 59 Sur 0.4 -- -- 90
2020-10-21 03:00:00 9.9 27 Sur 64 Sur 0.2 -- -- 91
2020-10-21 02:00:00 10.7 33 Sur 66 Sudoeste 0.4 -- -- 92
2020-10-21 01:00:00 10.9 42 Sur 73 Sur 0.2 -- -- 89
2020-10-21 00:00:00 10.5 19 Sudoeste 60 Sudoeste 1.8 -- -- 93
2020-10-20 23:00:00 11.4 31 Sudoeste 69 Sur 5.6 -- -- 96
2020-10-20 22:00:00 12.9 36 Sur 67 Sudeste 2 -- -- 93
2020-10-20 21:00:00 12.7 28 Sur 73 Sudoeste 7.4 -- -- 97
2020-10-20 20:00:00 13.1 44 Sur 136 Sudeste 7.6 -- -- 95
2020-10-20 19:00:00 13.4 46 Sudeste 107 Sur 10.8 -- -- 93
2020-10-20 18:00:00 13.7 53 Sur 111 Sur 10.8 -- -- 92
2020-10-20 17:00:00 14 37 Sudeste 108 Sur 10.2 -- -- 88
2020-10-20 16:00:00 14.5 32 Sur 81 Sudeste 9.6 -- -- 88
2020-10-20 15:00:00 14.3 35 Sudeste 77 Sur 8.2 -- -- 88
2020-10-20 14:00:00 13.1 32 Sudeste 66 Sudeste 2.8 -- -- 88
2020-10-20 13:00:00 12.8 28 Sudeste 49 Sudeste 1.2 -- -- 89
2020-10-20 12:00:00 13.1 26 Sur 53 Sur 0.6 -- -- 88
2020-10-20 11:00:00 12.5 30 Sur 54 Sur 0.4 -- -- 89
2020-10-20 10:00:00 12.5 22 Sur 47 Sur 1.4 -- -- 91
2020-10-20 09:00:00 12.5 22 Sur 51 Sur 1.2 -- -- 90
2020-10-20 08:00:00 12.6 30 Sur 61 Sur 0.4 -- -- 90
2020-10-20 07:00:00 12.5 37 Sur 66 Sur 3 -- -- 90
2020-10-20 06:00:00 12.8 48 Sur 72 Sur 0.4 -- -- 88
2020-10-20 05:00:00 12.9 43 Sur 81 Sur 1.2 -- -- 88
2020-10-20 04:00:00 12.5 41 Sur 79 Sur 1.2 -- -- 88
2020-10-20 03:00:00 12.2 33 Sur 80 Sur 1.8 -- -- 89
2020-10-20 02:00:00 11.8 46 Sur 77 Sur 0.8 -- -- 88
2020-10-20 01:00:00 11.9 46 Sur 90 Sur 0.6 -- -- 86
2020-10-20 00:00:00 13.3 51 Sur 92 Sur 0 -- -- 73
2020-10-19 23:00:00 14.4 51 Sur 85 Sur 0 -- -- 63
2020-10-19 22:00:00 13.4 59 Sur 93 Sur 0 -- -- 67
2020-10-19 21:00:00 14.2 62 Sur 95 Sur 0 -- -- 60
2020-10-19 20:00:00 14.4 43 Sur 82 Sur 0 -- -- 62
2020-10-19 19:00:00 16.9 37 Sudoeste 67 Sudoeste 0 -- -- 42
2020-10-19 18:00:00 17.4 33 Sur 81 Sur 0 -- -- 37
2020-10-19 17:00:00 17.9 38 Sur 73 Sur 0 -- -- 36
2020-10-19 16:00:00 17.2 45 Sur 76 Sur 0 -- -- 37
2020-10-19 15:00:00 17.6 38 Sur 69 Sur 0 -- -- 37
2020-10-19 14:00:00 18.3 39 Sur 73 Sur 0 -- -- 36
2020-10-19 13:00:00 17.9 42 Sur 84 Sur 0 -- -- 36
2020-10-19 12:00:00 16.7 41 Sur 77 Sudoeste 0 -- -- 38
2020-10-19 11:00:00 16.2 50 Sur 78 Sur 0 -- -- 40
2020-10-19 10:00:00 15.1 43 Sur 83 Sur 0 -- -- 41
2020-10-19 09:00:00 14.6 41 Sur 77 Sur 0 -- -- 41
2020-10-19 08:00:00 15.3 45 Sur 69 Sur 0 -- -- 39
2020-10-19 07:00:00 15.6 32 Sur 63 Sur 0 -- -- 38
2020-10-19 06:00:00 14.9 13 Noroeste 41 Este 0 -- -- 42
2020-10-19 05:00:00 15.4 15 Sudeste 44 Sudeste 0 -- -- 40
2020-10-19 04:00:00 15.3 9 Norte 56 Sudeste 0 -- -- 38
2020-10-19 03:00:00 16.2 28 Sur 66 Sudeste 0 -- -- 33
2020-10-19 02:00:00 16.4 30 Sudeste 61 Sudeste 0 -- -- 32
2020-10-19 01:00:00 14.6 9 Este 25 Nordeste 0 -- -- 36
2020-10-19 00:00:00 14.6 7 Nordeste 28 Este 0 -- -- 36
2020-10-18 23:00:00 14.6 11 Nordeste 23 Nordeste 0 -- -- 35
2020-10-18 22:00:00 12.3 15 Sur 18 Sudeste 0 -- -- 48
2020-10-18 21:00:00 11.7 10 Sudeste 18 Sudeste 0 -- -- 48
2020-10-18 20:00:00 13.9 8 Sudeste 15 Sudeste 0 -- -- 43
2020-10-18 19:00:00 15.8 5 Sur 13 Sudeste 0 -- -- 40
2020-10-18 18:00:00 17.6 5 Este 15 Sur 0 -- -- 36
2020-10-18 17:00:00 18 8 Sudeste 20 Sudeste 0 -- -- 37
2020-10-18 16:00:00 18.7 10 Sudeste 24 Sur 0 -- -- 33
2020-10-18 15:00:00 19.1 9 Este 17 Este 0 -- -- 33
2020-10-18 14:00:00 17.4 9 Sur 16 Sudeste 0 -- -- 36
2020-10-18 13:00:00 17.2 5 Sudoeste 13 Nordeste 0 -- -- 36
2020-10-18 12:00:00 16.5 6 Nordeste 13 Norte 0 -- -- 39
2020-10-18 11:00:00 14.3 6 Norte 10 Nordeste 0 -- -- 45
2020-10-18 10:00:00 9.8 5 Sur 13 Sudeste 0 -- -- 60
2020-10-18 09:00:00 7.8 5 Sur 13 Sudeste 0 -- -- 62
2020-10-18 08:00:00 10.9 4 Nordeste 15 Sudeste 0 -- -- 51
2020-10-18 07:00:00 8.5 7 Sudeste 14 Este 0 -- -- 57
2020-10-18 06:00:00 6.8 6 Este 17 Sur 0 -- -- 71
2020-10-18 05:00:00 6.3 11 Sur 16 Sur 0 -- -- 74
2020-10-18 04:00:00 8.4 10 Este 13 Sur 0 -- -- 67
2020-10-18 03:00:00 7.2 11 Sur 19 Sur 0 -- -- 76
2020-10-18 02:00:00 6.6 6 Sudeste 15 Sur 0 -- -- 77
2020-10-18 01:00:00 8.1 13 Sur 18 Sur 0 -- -- 73
2020-10-18 00:00:00 8.1 14 Sur 19 Sur 0 -- -- 72
2020-10-17 23:00:00 8.1 14 Sur 18 Sur 0 -- -- 72
2020-10-17 22:00:00 9 13 Sudeste 20 Sur 0 -- -- 68
2020-10-17 21:00:00 9.5 17 Sur 21 Sur 0 -- -- 66
2020-10-17 20:00:00 11 12 Sur 16 Sur 0 -- -- 61
2020-10-17 19:00:00 16.6 4 Sudoeste 16 Sudoeste 0 -- -- 45
2020-10-17 18:00:00 17.3 8 Sudoeste 20 Oeste 0 -- -- 42
2020-10-17 17:00:00 17.5 6 Noroeste 19 Oeste 0 -- -- 42
2020-10-17 16:00:00 17.3 8 Sudoeste 23 Sudoeste 0 -- -- 40
2020-10-17 15:00:00 16.9 11 Sudoeste 25 Sudoeste 0 -- -- 40
2020-10-17 14:00:00 16.2 11 Sudoeste 24 Sudoeste 0 -- -- 40
2020-10-17 13:00:00 14.7 14 Sudoeste 28 Sudoeste 0 -- -- 42
2020-10-17 12:00:00 13.8 16 Sudoeste 27 Sudoeste 0 -- -- 44
2020-10-17 11:00:00 12.4 15 Sudoeste 23 Sudoeste 0 -- -- 47
2020-10-17 10:00:00 10.7 10 Sudoeste 21 Sudoeste 0 -- -- 52
2020-10-17 09:00:00 8.8 11 Sur 19 Sur 0 -- -- 56
2020-10-17 08:00:00 7.8 7 Sudoeste 12 Sudoeste 0 -- -- 61
2020-10-17 07:00:00 6.5 6 Sudeste 15 Sur 0 -- -- 67
2020-10-17 06:00:00 5.9 14 Sur 18 Sur 0 -- -- 72
2020-10-17 05:00:00 5.2 12 Sur 18 Sur 0 -- -- 75
2020-10-17 04:00:00 5.2 15 Sur 19 Sur 0 -- -- 73
2020-10-17 03:00:00 5.1 17 Sur 21 Sur 0 -- -- 71
2020-10-17 02:00:00 5.1 17 Sur 20 Sur 0 -- -- 72
2020-10-17 01:00:00 5.3 15 Sudeste 18 Sur 0 -- -- 70
2020-10-17 00:00:00 5.1 15 Sur 19 Sudeste 0 -- -- 70
2020-10-16 23:00:00 5.3 13 Sur 16 Sudeste 0 -- -- 69
2020-10-16 22:00:00 5.8 13 Sur 17 Sur 0 -- -- 66
2020-10-16 21:00:00 6.7 13 Sur 19 Sur 0 -- -- 64
2020-10-16 20:00:00 7.9 13 Sur 16 Sudeste 0 -- -- 63
2020-10-16 19:00:00 14.1 7 Oeste 17 Oeste 0 -- -- 42
2020-10-16 18:00:00 14.7 9 Noroeste 18 Noroeste 0 -- -- 41
2020-10-16 17:00:00 14.8 7 Noroeste 22 Oeste 0 -- -- 38
2020-10-16 16:00:00 14.8 8 Noroeste 17 Oeste 0 -- -- 39
2020-10-16 15:00:00 14.3 6 Norte 23 Noroeste 0 -- -- 40
2020-10-16 14:00:00 13.7 10 Noroeste 19 Norte 0 -- -- 43
2020-10-16 13:00:00 12.8 6 Noroeste 14 Noroeste 0 -- -- 44
2020-10-16 12:00:00 12.2 5 Norte 15 Este 0 -- -- 40
2020-10-16 11:00:00 10.5 10 Este 16 Este 0 -- -- 55
2020-10-16 10:00:00 7.6 3 Nordeste 13 Sur 0 -- -- 67
2020-10-16 09:00:00 3.2 8 Sudeste 10 Sudeste 0 -- -- 77
2020-10-16 08:00:00 2.7 8 Sudeste 10 Sudeste 0 -- -- 80
2020-10-16 07:00:00 4.4 9 Este 16 Este 0 -- -- 71
2020-10-16 06:00:00 5 13 Este 16 Nordeste 0 -- -- 71
2020-10-16 05:00:00 3.9 6 Este 15 Este 0 -- -- 77
2020-10-16 04:00:00 4.3 9 Nordeste 16 Este 0 -- -- 76
2020-10-16 03:00:00 4.2 12 Este 23 Este 0 -- -- 78
2020-10-16 02:00:00 5 16 Este 23 Este 0 -- -- 76
2020-10-16 01:00:00 6 13 Nordeste 22 Este 0 -- -- 72
2020-10-16 00:00:00 7 13 Este 21 Sudeste 0 -- -- 68
2020-10-15 23:00:00 5.9 5 Este 10 Este 0 -- -- 71
2020-10-15 22:00:00 5.4 5 Sudeste 12 Sudeste 0 -- -- 74
2020-10-15 21:00:00 6.4 8 Sudeste 10 Sur 0 -- -- 69
2020-10-15 20:00:00 8.2 6 Sudeste 18 Nordeste 0 -- -- 64
2020-10-15 19:00:00 12.8 9 Nordeste 21 Nordeste 0 -- -- 47
2020-10-15 18:00:00 13.6 12 Nordeste 27 Nordeste 0 -- -- 45
2020-10-15 17:00:00 13.7 8 Norte 23 Norte 0 -- -- 45
2020-10-15 16:00:00 13.5 11 Norte 41 Nordeste 0 -- -- 45
2020-10-15 15:00:00 12.7 10 Nordeste 22 Norte 0 -- -- 50
2020-10-15 14:00:00 12.3 12 Nordeste 26 Nordeste 0 -- -- 53
2020-10-15 13:00:00 11.1 14 Nordeste 25 Norte 0 -- -- 58
2020-10-15 12:00:00 10.1 12 Nordeste 23 Este 0 -- -- 62
2020-10-15 11:00:00 8.7 13 Este 22 Nordeste 0 -- -- 69
2020-10-15 10:00:00 7.1 12 Este 19 Este 0 -- -- 75
2020-10-15 09:00:00 4.3 11 Este 15 Este 0 -- -- 84
2020-10-15 08:00:00 4 11 Este 16 Este 0 -- -- 83
2020-10-15 07:00:00 3.7 10 Este 15 Este 0 -- -- 83
2020-10-15 06:00:00 2.6 9 Este 12 Este 0 -- -- 89
2020-10-15 05:00:00 1.4 6 Este 9 Este 0 -- -- 93
2020-10-15 04:00:00 1 5 Sudeste 14 Sudeste 0 -- -- 93
2020-10-15 03:00:00 2.2 12 Sur 14 Sur 0 -- -- 92
2020-10-15 02:00:00 2.9 10 Sur 17 Sur 0 -- -- 91
2020-10-15 01:00:00 3.8 8 Sur 16 Sur 0 -- -- 89
2020-10-15 00:00:00 3.9 10 Sur 14 Sur 0 -- -- 87
2020-10-14 23:00:00 4.3 10 Sur 14 Sur 0 -- -- 84
2020-10-14 22:00:00 5.2 8 Sur 15 Sur 0 -- -- 80
2020-10-14 21:00:00 6 10 Sur 12 Sur 0 -- -- 77
2020-10-14 20:00:00 9.5 6 Oeste 19 Noroeste 0 -- -- 64
2020-10-14 19:00:00 11.6 14 Noroeste 26 Noroeste 0 -- -- 56
2020-10-14 18:00:00 12.7 13 Noroeste 28 Noroeste 0 -- -- 52
2020-10-14 17:00:00 12.9 15 Noroeste 30 Noroeste 0 -- -- 48
2020-10-14 16:00:00 13.2 12 Norte 23 Norte 0 -- -- 49
2020-10-14 15:00:00 12.9 9 Norte 25 Noroeste 0 -- -- 49
2020-10-14 14:00:00 11.6 11 Nordeste 22 Norte 0 -- -- 58
2020-10-14 13:00:00 10.5 8 Norte 22 Noroeste 0 -- -- 66
2020-10-14 12:00:00 7.9 8 Noroeste 18 Norte 0 -- -- 77
2020-10-14 11:00:00 6.2 6 Norte 14 Noroeste 0 -- -- 89
2020-10-14 10:00:00 4.7 0 Calma 10 Noroeste 0 -- -- 95
2020-10-14 09:00:00 2.4 3 Sur 5 Norte 0 -- -- 96
2020-10-14 08:00:00 2.9 0 Calma 6 Norte 0 -- -- 96
2020-10-14 07:00:00 3.2 3 Nordeste 7 Este 0 -- -- 96
2020-10-14 06:00:00 3.4 4 Nordeste 8 Nordeste 0 -- -- 96
2020-10-14 05:00:00 3.4 3 Este 5 Nordeste 0 -- -- 95
2020-10-14 04:00:00 2.8 2 Sudeste 6 Sudeste 0 -- -- 93
2020-10-14 03:00:00 3.6 4 Sur 6 Sur 0 -- -- 92
2020-10-14 02:00:00 4.8 3 Sudoeste 8 Sur 0 -- -- 91
2020-10-14 01:00:00 6.3 3 Sur 10 Oeste 0 -- -- 85
2020-10-14 00:00:00 8 5 Oeste 20 Oeste 0 -- -- 80
2020-10-13 23:00:00 10 8 Oeste 19 Oeste 0 -- -- 77
2020-10-13 22:00:00 11.1 11 Oeste 19 Oeste 0 -- -- 75
2020-10-13 21:00:00 11.4 10 Oeste 18 Oeste 0 -- -- 60
2020-10-13 20:00:00 14 10 Oeste 35 Oeste 0 -- -- 55
2020-10-13 19:00:00 16.9 20 Oeste 40 Oeste 0 -- -- 56
2020-10-13 18:00:00 18.1 26 Oeste 40 Oeste 0 -- -- 51
2020-10-13 17:00:00 18.8 22 Oeste 36 Sudoeste 0 -- -- 49
2020-10-13 16:00:00 18 19 Oeste 33 Sudoeste 0 -- -- 57
2020-10-13 15:00:00 18.2 14 Oeste 29 Oeste 0 -- -- 59
2020-10-13 14:00:00 16.8 11 Oeste 24 Oeste 0 -- -- 65
2020-10-13 13:00:00 15 9 Noroeste 21 Noroeste 0 -- -- 73
2020-10-13 12:00:00 12.6 7 Oeste 16 Sudoeste 0 -- -- 83
2020-10-13 11:00:00 -- -- -- -- -- -- -- -- --
2020-10-13 10:00:00 -- -- -- -- -- -- -- -- --
2020-10-13 09:00:00 8.2 5 Sur 19 Sur 0 -- -- 94
2020-10-13 08:00:00 7.4 8 Sur 13 Sur 0 -- -- 93
2020-10-13 07:00:00 7.7 7 Sur 13 Sur 0 -- -- 92
2020-10-13 06:00:00 7.4 5 Sudoeste 14 Sur 0 -- -- 88
2020-10-13 05:00:00 8 10 Sur 21 Sur 0 -- -- 83
2020-10-13 04:00:00 -- -- -- -- -- -- -- -- --
2020-10-13 03:00:00 7.6 12 Sur 20 Sur 0 -- -- 75
2020-10-13 02:00:00 7.8 16 Sur 21 Sur 0 -- -- 72
2020-10-13 01:00:00 -- -- -- -- -- -- -- -- --
2020-10-13 00:00:00 7.6 13 Sur 17 Sur 0 -- -- 64
2020-10-12 23:00:00 6.6 12 Sudeste 14 Sur 0 -- -- 66
2020-10-12 22:00:00 6.4 7 Sudeste 12 Este 0 -- -- 66
2020-10-12 21:00:00 9.5 10 Este 12 Este 0 -- -- 53
2020-10-12 20:00:00 10.6 8 Este 18 Nordeste 0 -- -- 51
2020-10-12 19:00:00 14.2 11 Nordeste 23 Nordeste 0 -- -- 40
2020-10-12 18:00:00 -- -- -- -- -- -- -- -- --
2020-10-12 17:00:00 15.4 13 Nordeste 24 Nordeste 0 -- -- 41
2020-10-12 16:00:00 15.4 14 Norte 26 Nordeste 0 -- -- 40
2020-10-12 15:00:00 14.8 14 Nordeste 28 Este 0 -- -- 42
2020-10-12 14:00:00 14.1 13 Nordeste 28 Nordeste 0 -- -- 47
2020-10-12 13:00:00 12.5 18 Nordeste 32 Este 0 -- -- 52
2020-10-12 12:00:00 11.2 20 Este 35 Este 0 -- -- 54
2020-10-12 11:00:00 10 23 Este 38 Este 0 -- -- 56
2020-10-12 10:00:00 8.3 23 Este 41 Este 0 -- -- 61
2020-10-12 09:00:00 6.3 23 Este 37 Este 0 -- -- 69
2020-10-12 08:00:00 6.3 22 Este 41 Este 0 -- -- 70
2020-10-12 07:00:00 6 27 Este 40 Este 0 -- -- 72
2020-10-12 06:00:00 5.9 25 Este 39 Este 0 -- -- 73
2020-10-12 05:00:00 5.9 25 Este 38 Este 0 -- -- 74
2020-10-12 04:00:00 -- -- -- -- -- -- -- -- --
2020-10-12 03:00:00 5.9 17 Este 35 Este 0 -- -- 73
2020-10-12 02:00:00 5.9 19 Este 30 Este 0 -- -- 72
2020-10-12 01:00:00 6.6 18 Nordeste 41 Este 0 -- -- 68
2020-10-12 00:00:00 8.3 22 Nordeste 43 Nordeste 0 -- -- 61
2020-10-11 23:00:00 9.8 19 Este 28 Este 0 -- -- 57
2020-10-11 22:00:00 9.3 13 Este 18 Este 0 -- -- 60
2020-10-11 21:00:00 -- -- -- -- -- -- -- -- --
2020-10-11 20:00:00 -- -- -- -- -- -- -- -- --
2020-10-11 19:00:00 13.4 21 Nordeste 37 Nordeste 0 -- -- 47
2020-10-11 18:00:00 14.3 25 Nordeste 36 Nordeste 0 -- -- 45
2020-10-11 17:00:00 14.6 24 Nordeste 35 Nordeste 0 -- -- 45
2020-10-11 16:00:00 14.5 26 Nordeste 40 Nordeste 0 -- -- 45
2020-10-11 15:00:00 13.9 26 Nordeste 37 Nordeste 0 -- -- 46
2020-10-11 14:00:00 12.9 25 Nordeste 40 Nordeste 0 -- -- 48
2020-10-11 13:00:00 12 30 Nordeste 44 Nordeste 0 -- -- 52
2020-10-11 12:00:00 10.5 26 Nordeste 42 Nordeste 0 -- -- 59
2020-10-11 11:00:00 9.5 29 Este 50 Este 0 -- -- 61
2020-10-11 10:00:00 8.2 28 Este 53 Este 0 -- -- 67
2020-10-11 09:00:00 6.7 32 Este 48 Este 0 -- -- 76
2020-10-11 08:00:00 6.7 24 Este 41 Este 0 -- -- 74
2020-10-11 07:00:00 7.3 26 Este 42 Este 0 -- -- 72
2020-10-11 06:00:00 7.7 26 Este 40 Este 0 -- -- 73
2020-10-11 05:00:00 8.3 28 Este 41 Nordeste 0 -- -- 70
2020-10-11 04:00:00 8.7 28 Este 41 Este 0 -- -- 69
2020-10-11 03:00:00 8.9 21 Este 34 Este 0 -- -- 66
2020-10-11 02:00:00 9.4 24 Este 41 Este 0 -- -- 64
2020-10-11 01:00:00 9.8 24 Este 40 Este 0 -- -- 67
2020-10-11 00:00:00 10.4 18 Este 37 Nordeste 0 -- -- 71
2020-10-10 23:00:00 11.7 21 Este 40 Nordeste 0 -- -- 70
2020-10-10 22:00:00 12.8 23 Este 37 Nordeste 0 -- -- 67
2020-10-10 21:00:00 14.2 22 Nordeste 31 Nordeste 0 -- -- 64
2020-10-10 20:00:00 15.7 15 Nordeste 31 Nordeste 0 -- -- 58
2020-10-10 19:00:00 18.2 21 Nordeste 30 Nordeste 0 -- -- 51
2020-10-10 18:00:00 19.4 20 Nordeste 30 Nordeste 0 -- -- 46
2020-10-10 17:00:00 19.8 19 Nordeste 33 Nordeste 0 -- -- 46
2020-10-10 16:00:00 19.8 19 Nordeste 32 Nordeste 0 -- -- 49
2020-10-10 15:00:00 18.6 23 Nordeste 37 Nordeste 0 -- -- 51
2020-10-10 14:00:00 18.5 22 Nordeste 33 Norte 0 -- -- 51
2020-10-10 13:00:00 17.2 21 Nordeste 29 Nordeste 0 -- -- 61
2020-10-10 12:00:00 15.1 17 Nordeste 35 Nordeste 0 -- -- 70
2020-10-10 11:00:00 13.9 17 Nordeste 22 Norte 0 -- -- 77
2020-10-10 10:00:00 12.7 12 Este 19 Este 0 -- -- 78
2020-10-10 09:00:00 7.8 9 Este 14 Este 0 -- -- 90
2020-10-10 08:00:00 9.3 3 Este 12 Este 0 -- -- 80
2020-10-10 07:00:00 9.1 8 Sudeste 10 Sudeste 0 -- -- 80
2020-10-10 06:00:00 9 9 Sudeste 12 Sudeste 0 -- -- 79
2020-10-10 05:00:00 9.1 9 Sudeste 14 Sur 0 -- -- 77
2020-10-10 04:00:00 9.9 8 Sur 14 Sudeste 0 -- -- 74
2020-10-10 03:00:00 10.3 10 Sudeste 15 Sudeste 0 -- -- 76
2020-10-10 02:00:00 10.7 12 Sur 17 Sur 0 -- -- 75
2020-10-10 01:00:00 11.4 14 Sur 21 Sur 0 -- -- 69
2020-10-10 00:00:00 12.4 15 Sur 20 Sur 0 -- -- 64
2020-10-09 23:00:00 12.6 15 Sur 21 Sur 0 -- -- 63
2020-10-09 22:00:00 12.7 15 Sur 19 Sur 0 -- -- 60
2020-10-09 21:00:00 13.3 14 Sur 20 Sur 0 -- -- 56
2020-10-09 20:00:00 15.8 11 Sur 14 Sur 0 -- -- 50
2020-10-09 19:00:00 21.7 8 Noroeste 14 Oeste 0 -- -- 33
2020-10-09 18:00:00 22.5 11 Oeste 21 Oeste 0 -- -- 33
2020-10-09 17:00:00 23.2 12 Oeste 23 Oeste 0 -- -- 36
2020-10-09 16:00:00 22.6 12 Oeste 24 Noroeste 0 -- -- 39
2020-10-09 15:00:00 21.7 12 Noroeste 26 Oeste 0 -- -- 48
2020-10-09 14:00:00 21.2 10 Noroeste 20 Oeste 0 -- -- 54
2020-10-09 13:00:00 20.6 8 Oeste 16 Oeste 0 -- -- 54
2020-10-09 12:00:00 19 3 Noroeste 10 Noroeste 0 -- -- 57
2020-10-09 11:00:00 17.6 2 Norte 5 Sudeste 0 -- -- 59
2020-10-09 10:00:00 13.6 6 Sur 12 Sudeste 0 -- -- 71
2020-10-09 09:00:00 10.1 11 Sudeste 15 Sur 0 -- -- 74
2020-10-09 08:00:00 11.3 2 Oeste 19 Sur 0 -- -- 64
2020-10-09 07:00:00 9.7 13 Sudeste 17 Sudeste 0 -- -- 77
2020-10-09 06:00:00 9.5 15 Sur 18 Sudeste 0 -- -- 72
2020-10-09 05:00:00 9.8 11 Sur 15 Sudeste 0 -- -- 71
2020-10-09 04:00:00 10.8 13 Sur 18 Sudeste 0 -- -- 67
2020-10-09 03:00:00 10.8 14 Sur 17 Sur 0 -- -- 72
2020-10-09 02:00:00 11.8 12 Sur 19 Sur 0 -- -- 67
2020-10-09 01:00:00 12 16 Sur 19 Sur 0 -- -- 66
2020-10-09 00:00:00 13.7 4 Sudoeste 21 Sur 0 -- -- 56
2020-10-08 23:00:00 13.1 15 Sur 18 Sur 0 -- -- 58
2020-10-08 22:00:00 13.4 14 Sur 17 Sudeste 0 -- -- 60
2020-10-08 21:00:00 13.9 7 Sur 11 Sur 0 -- -- 63
2020-10-08 20:00:00 17.7 8 Sur 13 Sur 0 -- -- 53
2020-10-08 19:00:00 22 10 Sur 17 Sudoeste 0 -- -- 41
2020-10-08 18:00:00 23.2 10 Sur 26 Sur 0 -- -- 40
2020-10-08 17:00:00 23.7 14 Sur 28 Sudoeste 0 -- -- 36
2020-10-08 16:00:00 23.8 16 Sur 33 Sur 0 -- -- 40
2020-10-08 15:00:00 23.2 18 Sur 32 Sudoeste 0 -- -- 38
2020-10-08 14:00:00 22.5 17 Sur 33 Sudoeste 0 -- -- 38
2020-10-08 13:00:00 20.4 11 Oeste 26 Sur 0 -- -- 44
2020-10-08 12:00:00 22.4 13 Sur 22 Sudoeste 0 -- -- 37
2020-10-08 11:00:00 19.4 4 Noroeste 17 Este 0 -- -- 51
2020-10-08 10:00:00 16.1 4 Este 10 Este 0 -- -- 63
2020-10-08 09:00:00 12.9 4 Nordeste 11 Este 0 -- -- 70
2020-10-08 08:00:00 11.4 3 Sudeste 12 Sudeste 0 -- -- 74
2020-10-08 07:00:00 9.9 6 Sur 19 Sur 0 -- -- 78
2020-10-08 06:00:00 10 6 Sudeste 20 Sur 0 -- -- 75
2020-10-08 05:00:00 11.4 6 Sur 16 Sudeste 0 -- -- 71
2020-10-08 04:00:00 11.7 13 Sur 20 Sur 0 -- -- 73
2020-10-08 03:00:00 12.3 14 Sur 22 Sur 0 -- -- 73
2020-10-08 02:00:00 12.9 17 Sur 20 Sur 0 -- -- 70
2020-10-08 01:00:00 13.3 14 Sur 22 Sur 0 -- -- 75
2020-10-08 00:00:00 13.6 13 Sur 19 Sudeste 0 -- -- 76
2020-10-07 23:00:00 13.7 15 Sur 19 Sur 0 -- -- 77
2020-10-07 22:00:00 14.1 16 Sur 20 Sur 0 -- -- 73
2020-10-07 21:00:00 15 10 Sur 17 Sur 0 -- -- 71
2020-10-07 20:00:00 17.8 9 Sur 12 Sur 0 -- -- 63
2020-10-07 19:00:00 22.9 4 Este 15 Sur 0 -- -- 45
2020-10-07 18:00:00 23.5 9 Sudeste 20 Este 0 -- -- 47
2020-10-07 17:00:00 23.7 5 Norte 13 Noroeste 0 -- -- 48
2020-10-07 16:00:00 23 7 Este 19 Este 0 -- -- 50
2020-10-07 15:00:00 22.1 10 Este 21 Este 0 -- -- 54
2020-10-07 14:00:00 20.8 12 Este 24 Este 0 -- -- 57
2020-10-07 13:00:00 19.6 16 Este 27 Este 0 -- -- 61
2020-10-07 12:00:00 17.7 17 Este 29 Este 0 -- -- 61
2020-10-07 11:00:00 14.1 10 Nordeste 15 Nordeste 0 -- -- 81
2020-10-07 10:00:00 12.8 3 Nordeste 9 Sudeste 0 -- -- 89
2020-10-07 09:00:00 9.1 8 Sudeste 13 Sur 0 -- -- 96
2020-10-07 08:00:00 8.7 12 Sudeste 19 Sur 0 -- -- 94
2020-10-07 07:00:00 8.6 17 Sur 21 Sur 0 -- -- 93
2020-10-07 06:00:00 10.7 5 Sur 14 Sur 0 -- -- 95
2020-10-07 05:00:00 10.9 4 Sudoeste 8 Sur 0 -- -- 95
2020-10-07 04:00:00 9.8 8 Sur 15 Sur 0 -- -- 95
2020-10-07 03:00:00 9.2 10 Sur 18 Sur 0 -- -- 95
2020-10-07 02:00:00 9.5 8 Sur 14 Sur 0 -- -- 94
2020-10-07 01:00:00 10.2 12 Sur 16 Sur 0 -- -- 93
2020-10-07 00:00:00 10.1 12 Sur 19 Sur 0 -- -- 90
2020-10-06 23:00:00 10.8 9 Sur 17 Sudoeste 0 -- -- 85
2020-10-06 22:00:00 12.6 11 Sur 21 Sudeste 0 -- -- 79
2020-10-06 21:00:00 12.7 12 Sur 17 Sur 0 -- -- 80
2020-10-06 20:00:00 16.8 6 Sudoeste 15 Oeste 0 -- -- 66
2020-10-06 19:00:00 19.7 10 Oeste 22 Oeste 0 -- -- 55
2020-10-06 18:00:00 20.4 13 Noroeste 24 Oeste 0 -- -- 58
2020-10-06 17:00:00 19.3 13 Noroeste 25 Noroeste 0 -- -- 65
2020-10-06 16:00:00 19.3 12 Noroeste 22 Noroeste 0 -- -- 64
2020-10-06 15:00:00 19.1 13 Noroeste 23 Noroeste 0 -- -- 64
2020-10-06 14:00:00 18.2 14 Noroeste 26 Oeste 0 -- -- 68
2020-10-06 13:00:00 17.9 10 Oeste 22 Oeste 0 -- -- 70
2020-10-06 12:00:00 15.3 6 Sur 13 Sur 0 -- -- 90
2020-10-06 11:00:00 13.4 4 Noroeste 9 Sudoeste 0 -- -- 96
2020-10-06 10:00:00 12.5 5 Sudoeste 13 Oeste 0 -- -- 97
2020-10-06 09:00:00 12.4 7 Oeste 15 Sudoeste 0 -- -- 97
2020-10-06 08:00:00 11.2 9 Sur 13 Sudoeste 0 -- -- 98
2020-10-06 07:00:00 11.3 9 Sudoeste 16 Sudoeste 0 -- -- 99
2020-10-06 06:00:00 11.1 12 Sudoeste 18 Sudoeste 0 -- -- 98
2020-10-06 05:00:00 11.3 10 Sudoeste 16 Sudoeste 0 -- -- 97
2020-10-06 04:00:00 11.1 7 Sudoeste 10 Oeste 0 -- -- 95
2020-10-06 03:00:00 11.7 3 Oeste 9 Oeste 0 -- -- 95
2020-10-06 02:00:00 12 5 Sur 14 Sudoeste 0 -- -- 94
2020-10-06 01:00:00 11.7 6 Sudoeste 13 Sudoeste 0 -- -- 94
2020-10-06 00:00:00 11.5 5 Sudoeste 12 Sudoeste 0 -- -- 95
2020-10-05 23:00:00 11.2 6 Sudoeste 14 Sudoeste 0 -- -- 94
2020-10-05 22:00:00 11.7 6 Sudoeste 17 Oeste 0 -- -- 90
2020-10-05 21:00:00 12.7 9 Oeste 22 Oeste 0 -- -- 81
2020-10-05 20:00:00 13.1 10 Oeste 15 Oeste 0 -- -- 76
2020-10-05 19:00:00 13.7 8 Sudoeste 25 Oeste 0 -- -- 72
2020-10-05 18:00:00 15.6 14 Oeste 26 Oeste 0 -- -- 63
2020-10-05 17:00:00 15.3 17 Oeste 32 Noroeste 0 -- -- 60
2020-10-05 16:00:00 15.5 15 Noroeste 28 Noroeste 0 -- -- 59
2020-10-05 15:00:00 14.7 14 Noroeste 29 Noroeste 0 -- -- 59
2020-10-05 14:00:00 13.5 15 Noroeste 28 Noroeste 0 -- -- 63
2020-10-05 13:00:00 12.3 7 Norte 23 Noroeste 0 -- -- 65
2020-10-05 12:00:00 10.7 15 Oeste 27 Oeste 0 -- -- 78
2020-10-05 11:00:00 9 8 Noroeste 25 Oeste 0 -- -- 88
2020-10-05 10:00:00 7.9 9 Oeste 15 Oeste 0 -- -- 94
2020-10-05 09:00:00 7.1 6 Sudoeste 12 Sudoeste 0 -- -- 96
2020-10-05 08:00:00 6.8 6 Sudoeste 10 Sudoeste 0 -- -- 95
2020-10-05 07:00:00 6.9 5 Sudoeste 12 Sudoeste 0 -- -- 94
2020-10-05 06:00:00 7 7 Oeste 18 Sudoeste 0 -- -- 94
2020-10-05 05:00:00 6.9 13 Sudoeste 20 Sudoeste 0 -- -- 93
2020-10-05 04:00:00 6.5 9 Sudoeste 16 Oeste 0 -- -- 94
2020-10-05 03:00:00 6.1 8 Sudoeste 18 Oeste 0 -- -- 94
2020-10-05 02:00:00 6.2 11 Sudoeste 21 Oeste 0 -- -- 93
2020-10-05 01:00:00 7.4 12 Sudoeste 27 Oeste 0 -- -- 89
2020-10-05 00:00:00 8 19 Oeste 28 Oeste 0 -- -- 85
2020-10-04 23:00:00 8.6 14 Oeste 28 Oeste 0 -- -- 82
2020-10-04 22:00:00 8.9 15 Oeste 31 Oeste 0 -- -- 80
2020-10-04 21:00:00 9.4 15 Oeste 31 Oeste 0 -- -- 73
2020-10-04 20:00:00 10.2 17 Oeste 41 Oeste 0 -- -- 67
2020-10-04 19:00:00 11.8 24 Oeste 43 Oeste 0 -- -- 62
2020-10-04 18:00:00 12.1 24 Oeste 42 Oeste 0 -- -- 60
2020-10-04 17:00:00 12.4 28 Oeste 47 Sudoeste 0 -- -- 57
2020-10-04 16:00:00 13.4 28 Oeste 41 Oeste 0 -- -- 52
2020-10-04 15:00:00 13.4 22 Noroeste 40 Noroeste 0 -- -- 58
2020-10-04 14:00:00 12 24 Noroeste 40 Oeste 0 -- -- 64
2020-10-04 13:00:00 11.1 23 Oeste 33 Oeste 0 -- -- 73
2020-10-04 12:00:00 9.9 19 Oeste 30 Oeste 0 -- -- 85
2020-10-04 11:00:00 8.3 21 Oeste 39 Sudoeste 0 -- -- 96
2020-10-04 10:00:00 8.5 23 Sudoeste 39 Sudoeste 0.2 -- -- 96
2020-10-04 09:00:00 9.4 26 Sudoeste 45 Sudoeste 0 -- -- 90
2020-10-04 08:00:00 9.7 26 Sudoeste 41 Sudoeste 0 -- -- 76
2020-10-04 07:00:00 9.2 18 Sudoeste 30 Sudoeste 0 -- -- 79
2020-10-04 06:00:00 7.6 19 Sudoeste 31 Sudoeste 0 -- -- 89
2020-10-04 05:00:00 7.3 14 Sudoeste 26 Sudoeste 0 -- -- 90
2020-10-04 04:00:00 6.7 15 Sudoeste 27 Sudoeste 0 -- -- 93
2020-10-04 03:00:00 6.3 12 Sudoeste 22 Sudoeste 0 -- -- 92
2020-10-04 02:00:00 6.8 15 Sudoeste 25 Sudoeste 0 -- -- 89
2020-10-04 01:00:00 7.5 14 Sudoeste 26 Oeste 0 -- -- 87
2020-10-04 00:00:00 7.8 14 Sudoeste 24 Sudoeste 0 -- -- 83
2020-10-03 23:00:00 7.6 11 Sudoeste 19 Oeste 0 -- -- 81
2020-10-03 22:00:00 8.2 13 Sudoeste 23 Sudoeste 0 -- -- 78
2020-10-03 21:00:00 8.4 10 Sudoeste 22 Oeste 0 -- -- 75
2020-10-03 20:00:00 8.7 13 Oeste 32 Oeste 0 -- -- 73
2020-10-03 19:00:00 10.9 20 Oeste 39 Oeste 0 -- -- 62
2020-10-03 18:00:00 10.1 19 Oeste 32 Oeste 0 -- -- 61
2020-10-03 17:00:00 10 22 Oeste 37 Oeste 0 -- -- 68
2020-10-03 16:00:00 10.9 27 Oeste 40 Oeste 0 -- -- 62
2020-10-03 15:00:00 10.4 22 Oeste 36 Oeste 0 -- -- 62
2020-10-03 14:00:00 10.9 16 Noroeste 33 Oeste 0 -- -- 65
2020-10-03 13:00:00 9 23 Oeste 34 Noroeste 0 -- -- 70
2020-10-03 12:00:00 7.8 14 Oeste 29 Oeste 0 -- -- 78
2020-10-03 11:00:00 6.8 15 Oeste 33 Oeste 0 -- -- 81
2020-10-03 10:00:00 6 17 Oeste 28 Sudoeste 0 -- -- 87
2020-10-03 09:00:00 4.4 14 Sudoeste 26 Sudoeste 0 -- -- 95
2020-10-03 08:00:00 4.4 14 Sudoeste 24 Sudoeste 0 -- -- 95
2020-10-03 07:00:00 4.2 12 Sudoeste 26 Oeste 0 -- -- 95
2020-10-03 06:00:00 4.4 12 Sudoeste 26 Oeste 0 -- -- 96
2020-10-03 05:00:00 4.7 12 Sudoeste 26 Sudoeste 0 -- -- 95
2020-10-03 04:00:00 5 15 Oeste 24 Oeste 0 -- -- 93
2020-10-03 03:00:00 5.5 16 Oeste 23 Oeste 0 -- -- 91
2020-10-03 02:00:00 5.5 14 Oeste 28 Sudoeste 0 -- -- 90
2020-10-03 01:00:00 5.5 14 Sudoeste 31 Oeste 0 -- -- 88
2020-10-03 00:00:00 5.4 17 Sudoeste 30 Oeste 0 -- -- 88
2020-10-02 23:00:00 5.4 18 Oeste 34 Oeste 0 -- -- 86
2020-10-02 22:00:00 6.2 21 Oeste 33 Oeste 0 -- -- 82
2020-10-02 21:00:00 6 15 Oeste 33 Oeste 0 -- -- 77
2020-10-02 20:00:00 7.1 24 Oeste 41 Oeste 0 -- -- 71
2020-10-02 19:00:00 8.7 31 Oeste 48 Oeste 0 -- -- 65
2020-10-02 18:00:00 8.9 25 Oeste 44 Oeste 0 -- -- 69
2020-10-02 17:00:00 8.1 30 Oeste 48 Oeste 0 -- -- 76
2020-10-02 16:00:00 8.9 26 Oeste 46 Oeste 0 -- -- 71
2020-10-02 15:00:00 8.3 23 Oeste 42 Noroeste 0.2 -- -- 82
2020-10-02 14:00:00 6.7 21 Noroeste 43 Oeste 0 -- -- 92
2020-10-02 13:00:00 7.1 26 Oeste 54 Oeste 0.6 -- -- 96
2020-10-02 12:00:00 8 34 Oeste 62 Oeste 1 -- -- 95
2020-10-02 11:00:00 8.7 31 Oeste 61 Oeste 1.8 -- -- 97
2020-10-02 10:00:00 10.2 46 Oeste 69 Oeste 2.8 -- -- 97
2020-10-02 09:00:00 11.6 40 Oeste 70 Oeste 3 -- -- 97
2020-10-02 08:00:00 11.8 29 Sudoeste 51 Sudoeste 2.2 -- -- 97
2020-10-02 07:00:00 11.8 33 Sudoeste 63 Sudoeste 0.6 -- -- 96
2020-10-02 06:00:00 11.7 39 Sudoeste 62 Sudoeste 0.6 -- -- 95
2020-10-02 05:00:00 12.5 37 Sudoeste 74 Sur 0 -- -- 87
2020-10-02 04:00:00 12.4 37 Sudoeste 62 Sudoeste 0 -- -- 83
2020-10-02 03:00:00 11.9 33 Sudoeste 59 Sudoeste 0 -- -- 82
2020-10-02 02:00:00 11.4 33 Sudoeste 51 Sudoeste 0 -- -- 81
2020-10-02 01:00:00 11.3 31 Sudoeste 49 Sudoeste 0 -- -- 78
2020-10-02 00:00:00 10.3 19 Sudoeste 31 Sudoeste 0 -- -- 82
2020-10-01 23:00:00 10.3 17 Sudoeste 26 Oeste 0 -- -- 82
2020-10-01 22:00:00 11.2 18 Oeste 28 Oeste 0 -- -- 78
2020-10-01 21:00:00 11.5 14 Sudoeste 32 Oeste 0 -- -- 76
2020-10-01 20:00:00 12.8 15 Oeste 38 Oeste 0 -- -- 69
2020-10-01 19:00:00 15.1 26 Oeste 40 Oeste 0 -- -- 58
2020-10-01 18:00:00 16.5 23 Oeste 35 Oeste 0 -- -- 55
2020-10-01 17:00:00 16.3 21 Oeste 36 Sudoeste 0 -- -- 55
2020-10-01 16:00:00 16.6 21 Oeste 34 Oeste 0 -- -- 55
2020-10-01 15:00:00 14.9 14 Oeste 26 Sudoeste 0 -- -- 61
2020-10-01 14:00:00 14.6 10 Oeste 25 Oeste 0 -- -- 63
2020-10-01 13:00:00 13.5 13 Noroeste 22 Oeste 0 -- -- 69
2020-10-01 12:00:00 13 16 Oeste 30 Oeste 0 -- -- 75
2020-10-01 11:00:00 11.9 18 Oeste 31 Oeste 0 -- -- 77
2020-10-01 10:00:00 10 12 Oeste 24 Oeste 0 -- -- 97
2020-10-01 09:00:00 10 13 Oeste 25 Oeste 0 -- -- 97
2020-10-01 08:00:00 10.2 12 Sudoeste 22 Oeste 0 -- -- 96
2020-10-01 07:00:00 9.6 13 Sudoeste 22 Sudoeste 0 -- -- 93
2020-10-01 06:00:00 7.1 9 Sudoeste 14 Oeste 0 -- -- 90
2020-10-01 05:00:00 8.5 10 Sudoeste 18 Oeste 0 -- -- 66
2020-10-01 04:00:00 9.1 10 Sur 21 Oeste 0 -- -- 69
2020-10-01 03:00:00 8.4 10 Sudoeste 18 Oeste 0 -- -- 79
2020-10-01 02:00:00 10.3 10 Sudoeste 21 Sur 0 -- -- 93
2020-10-01 01:00:00 11.4 12 Oeste 17 Oeste 0 -- -- 88
2020-10-01 00:00:00 12.6 9 Sudoeste 18 Sudoeste 0 -- -- 69